Airfield :
LOGIN :

Register | Disclaimer

   EN    FR    IT 

 










Legend :    VFR   Marginal VFR   IFR   Intensive IFR   Very Intensive IFR
Visi :
Ceiling :
>= 8 km
>= 3000ft
5 to 8 km
1000 to 3000 ft
1500m to 5 km
500 to 1000 ft
800 to 1500m
200 to 500 ft
< 800m
< 200 ft
Symbols :   Thunderstorms  Fog  Heavy snow  Heavy precipitations  Wind > 20 kt
SIGMETs :     Misc.  Thunderstorms  Icing  Turbulence  Mountain Waves  Volcanic Ashes






- Airport Elevation : 989 ft
- IATA code : TRN


LIMF - Torino Caselle

CURRENT METAR :
  • 280620Z 33005KT 5000 -RA BR BKN011 OVC030 08/08 Q1015

EXPIRED METARs :
  • 280550Z 31007KT 7000 -RA BKN014 OVC030 08/08 Q1015
  • 280520Z 32007KT 7000 -RA BKN014 OVC030 08/08 Q1014 RERA
  • 280450Z 32008KT 5000 RA BR BKN014 OVC030 08/08 Q1014
  • 280420Z 34008KT 6000 -RA BKN014 OVC030 08/06 Q1014
  • 280350Z 33009KT 7000 -RA BKN020 OVC040 08/06 Q1013
  • 280320Z 32006KT 7000 -RA BKN020 OVC045 08/06 Q1013
  • 280250Z 32008KT 7000 -RA BKN020 OVC040 08/06 Q1013 RERA
  • 280220Z 32010KT 7000 RA BKN020 OVC040 08/06 Q1013
  • 280150Z 32011KT 7000 RA BKN020 OVC045 08/06 Q1013
  • 280120Z 32008KT 7000 RA BKN020 OVC040 08/07 Q1013

TAF TAF LIMF
Valid from the 28 at 06:00 until the 29 at 06:00 UTC


280500Z 2806/2906 36007KT 8000 RA BKN030
BECMG 2807/2809 NSW



MET'MAP, your aeronautical weather chart ! - Copyright ORBIFLY December 2007 - Disclaimer

ORBIFLY MET'MAP TEAM :

Programming & Development : Alexandra Zaïnal
Original concept : Baudouin d'Aumeries
Technical & hardware support : Manuel Goepfert
Assistance : Marc-Olivier Méhu




SOURCES & CREDITS :

   NOAA